sensor_id;sensor_type;location;lat;lon;timestamp;pressure;altitude;pressure_sealevel;temperature;humidity
45793;BME280;31495;42.740;22.908;2024-01-15T00:00:18;92353.38;;;-8.23;77.78
45793;BME280;31495;42.740;22.908;2024-01-15T00:01:18;92333.53;;;-8.26;77.60
45793;BME280;31495;42.740;22.908;2024-01-15T00:02:18;92540.22;;;-6.93;77.50
45793;BME280;31495;42.740;22.908;2024-01-15T00:03:18;92516.91;;;-7.07;77.52
45793;BME280;31495;42.740;22.908;2024-01-15T00:04:18;92563.59;;;-6.81;77.92
45793;BME280;31495;42.740;22.908;2024-01-15T00:05:18;92568.63;;;-6.81;77.48
45793;BME280;31495;42.740;22.908;2024-01-15T00:06:18;92549.53;;;-6.84;77.72
45793;BME280;31495;42.740;22.908;2024-01-15T00:07:18;92562.44;;;-6.77;77.71
45793;BME280;31495;42.740;22.908;2024-01-15T00:08:18;92558.56;;;-6.81;77.64
45793;BME280;31495;42.740;22.908;2024-01-15T00:09:18;92567.34;;;-6.76;77.84
45793;BME280;31495;42.740;22.908;2024-01-15T00:10:19;92335.56;;;-8.20;77.38
45793;BME280;31495;42.740;22.908;2024-01-15T00:11:19;92524.47;;;-7.07;77.36
45793;BME280;31495;42.740;22.908;2024-01-15T00:12:19;92479.66;;;-7.34;77.84
45793;BME280;31495;42.740;22.908;2024-01-15T00:13:19;92565.31;;;-6.82;78.24
45793;BME280;31495;42.740;22.908;2024-01-15T00:14:19;92570.91;;;-6.78;78.00
45793;BME280;31495;42.740;22.908;2024-01-15T00:15:19;92478.66;;;-7.43;77.88
45793;BME280;31495;42.740;22.908;2024-01-15T00:16:19;92352.94;;;-8.28;77.90
45793;BME280;31495;42.740;22.908;2024-01-15T00:17:19;92492.22;;;-7.34;78.26
45793;BME280;31495;42.740;22.908;2024-01-15T00:18:19;92534.50;;;-7.07;78.03
45793;BME280;31495;42.740;22.908;2024-01-15T00:19:19;92440.47;;;-7.69;77.68
45793;BME280;31495;42.740;22.908;2024-01-15T00:20:20;92452.75;;;-7.54;77.58
45793;BME280;31495;42.740;22.908;2024-01-15T00:21:20;92340.94;;;-8.25;77.25
45793;BME280;31495;42.740;22.908;2024-01-15T00:22:20;92567.03;;;-6.82;77.96
45793;BME280;31495;42.740;22.908;2024-01-15T00:23:20;92450.00;;;-7.51;77.42
45793;BME280;31495;42.740;22.908;2024-01-15T00:24:20;92575.00;;;-6.77;77.84
45793;BME280;31495;42.740;22.908;2024-01-15T00:25:20;92554.44;;;-6.82;77.57
45793;BME280;31495;42.740;22.908;2024-01-15T00:26:20;92528.00;;;-6.98;77.79
45793;BME280;31495;42.740;22.908;2024-01-15T00:27:20;92347.88;;;-8.17;77.43
45793;BME280;31495;42.740;22.908;2024-01-15T00:28:20;92520.00;;;-7.03;77.25
45793;BME280;31495;42.740;22.908;2024-01-15T00:29:20;92474.84;;;-7.37;77.38
45793;BME280;31495;42.740;22.908;2024-01-15T00:30:20;92545.19;;;-6.82;77.08
45793;BME280;31495;42.740;22.908;2024-01-15T00:31:20;92556.50;;;-6.76;77.69
45793;BME280;31495;42.740;22.908;2024-01-15T00:32:21;92560.16;;;-6.80;77.73
45793;BME280;31495;42.740;22.908;2024-01-15T00:33:21;92560.84;;;-6.78;77.92
45793;BME280;31495;42.740;22.908;2024-01-15T00:34:21;92546.22;;;-6.85;77.68
45793;BME280;31495;42.740;22.908;2024-01-15T00:35:21;92477.47;;;-7.27;77.68
45793;BME280;31495;42.740;22.908;2024-01-15T00:36:21;92554.56;;;-6.84;77.73
45793;BME280;31495;42.740;22.908;2024-01-15T00:37:21;92439.75;;;-7.60;77.83
45793;BME280;31495;42.740;22.908;2024-01-15T00:38:21;92486.97;;;-7.31;78.01
45793;BME280;31495;42.740;22.908;2024-01-15T00:39:21;92496.41;;;-7.23;78.20
45793;BME280;31495;42.740;22.908;2024-01-15T00:40:21;92556.28;;;-6.85;78.09
45793;BME280;31495;42.740;22.908;2024-01-15T00:41:21;92388.69;;;-7.92;78.40
45793;BME280;31495;42.740;22.908;2024-01-15T00:42:21;92447.41;;;-7.61;78.46
45793;BME280;31495;42.740;22.908;2024-01-15T00:43:21;92475.53;;;-7.35;78.52
45793;BME280;31495;42.740;22.908;2024-01-15T00:44:21;92558.44;;;-6.80;78.12
45793;BME280;31495;42.740;22.908;2024-01-15T00:45:22;92521.72;;;-7.04;77.44
45793;BME280;31495;42.740;22.908;2024-01-15T00:46:22;92549.41;;;-6.82;77.15
45793;BME280;31495;42.740;22.908;2024-01-15T00:47:22;92421.16;;;-7.68;77.21
45793;BME280;31495;42.740;22.908;2024-01-15T00:48:22;92525.94;;;-7.04;77.33
45793;BME280;31495;42.740;22.908;2024-01-15T00:49:22;92441.34;;;-7.59;77.37
45793;BME280;31495;42.740;22.908;2024-01-15T00:50:22;92498.00;;;-7.22;77.43
45793;BME280;31495;42.740;22.908;2024-01-15T00:51:22;92556.84;;;-6.81;77.75
45793;BME280;31495;42.740;22.908;2024-01-15T00:52:22;92414.66;;;-7.71;77.25
45793;BME280;31495;42.740;22.908;2024-01-15T00:53:22;92435.50;;;-7.59;78.12
45793;BME280;31495;42.740;22.908;2024-01-15T00:54:22;92556.16;;;-6.83;78.04
45793;BME280;31495;42.740;22.908;2024-01-15T00:55:22;92462.09;;;-7.45;78.06
45793;BME280;31495;42.740;22.908;2024-01-15T00:56:22;92542.25;;;-6.98;77.88
45793;BME280;31495;42.740;22.908;2024-01-15T00:57:23;92542.03;;;-6.95;78.13
45793;BME280;31495;42.740;22.908;2024-01-15T00:58:23;92530.50;;;-6.98;77.86
45793;BME280;31495;42.740;22.908;2024-01-15T00:59:23;92550.59;;;-6.87;77.83
45793;BME280;31495;42.740;22.908;2024-01-15T01:00:23;92525.59;;;-6.99;77.67
45793;BME280;31495;42.740;22.908;2024-01-15T01:01:23;92523.00;;;-7.09;78.10
45793;BME280;31495;42.740;22.908;2024-01-15T01:02:23;92451.25;;;-7.46;78.13
45793;BME280;31495;42.740;22.908;2024-01-15T01:03:23;92483.28;;;-7.27;78.08
45793;BME280;31495;42.740;22.908;2024-01-15T01:04:23;92492.00;;;-7.31;77.86
45793;BME280;31495;42.740;22.908;2024-01-15T01:05:23;92530.75;;;-7.01;77.30
45793;BME280;31495;42.740;22.908;2024-01-15T01:06:23;92426.78;;;-7.76;77.70
45793;BME280;31495;42.740;22.908;2024-01-15T01:07:23;92530.78;;;-7.12;77.35
45793;BME280;31495;42.740;22.908;2024-01-15T01:08:23;92515.38;;;-7.19;77.38
45793;BME280;31495;42.740;22.908;2024-01-15T01:09:23;92550.84;;;-7.01;77.49
45793;BME280;31495;42.740;22.908;2024-01-15T01:10:24;92541.28;;;-7.07;77.84
45793;BME280;31495;42.740;22.908;2024-01-15T01:11:24;92517.09;;;-7.19;77.71
45793;BME280;31495;42.740;22.908;2024-01-15T01:12:24;92545.06;;;-7.13;77.32
45793;BME280;31495;42.740;22.908;2024-01-15T01:13:24;92521.63;;;-7.13;77.00
45793;BME280;31495;42.740;22.908;2024-01-15T01:14:24;92502.94;;;-7.32;76.68
45793;BME280;31495;42.740;22.908;2024-01-15T01:15:24;92430.66;;;-7.72;76.99
45793;BME280;31495;42.740;22.908;2024-01-15T01:16:24;92472.38;;;-7.48;77.30
45793;BME280;31495;42.740;22.908;2024-01-15T01:17:25;92545.75;;;-7.11;77.40
45793;BME280;31495;42.740;22.908;2024-01-15T01:18:24;92546.22;;;-7.17;77.53
45793;BME280;31495;42.740;22.908;2024-01-15T01:19:24;92525.69;;;-7.33;77.53
45793;BME280;31495;42.740;22.908;2024-01-15T01:20:24;92506.88;;;-7.39;77.76
45793;BME280;31495;42.740;22.908;2024-01-15T01:21:25;92412.78;;;-8.01;77.44
45793;BME280;31495;42.740;22.908;2024-01-15T01:22:25;92532.28;;;-7.21;77.48
45793;BME280;31495;42.740;22.908;2024-01-15T01:23:25;92546.66;;;-7.12;77.43
45793;BME280;31495;42.740;22.908;2024-01-15T01:24:25;92540.94;;;-7.14;77.81
45793;BME280;31495;42.740;22.908;2024-01-15T01:25:25;92539.50;;;-7.16;77.40
45793;BME280;31495;42.740;22.908;2024-01-15T01:26:25;92432.72;;;-7.77;77.66
45793;BME280;31495;42.740;22.908;2024-01-15T01:27:25;92415.50;;;-7.93;77.47
45793;BME280;31495;42.740;22.908;2024-01-15T01:28:25;92537.41;;;-7.11;77.56
45793;BME280;31495;42.740;22.908;2024-01-15T01:29:25;92480.59;;;-7.46;77.29
45793;BME280;31495;42.740;22.908;2024-01-15T01:30:26;92517.44;;;-7.24;77.38
45793;BME280;31495;42.740;22.908;2024-01-15T01:31:25;92494.97;;;-7.37;77.21
45793;BME280;31495;42.740;22.908;2024-01-15T01:32:26;92533.09;;;-7.21;77.33
45793;BME280;31495;42.740;22.908;2024-01-15T01:33:26;92529.19;;;-7.25;77.54
45793;BME280;31495;42.740;22.908;2024-01-15T01:34:26;92510.94;;;-7.38;77.65
45793;BME280;31495;42.740;22.908;2024-01-15T01:35:26;92428.19;;;-7.95;77.48
45793;BME280;31495;42.740;22.908;2024-01-15T01:36:26;92446.75;;;-7.74;77.43
45793;BME280;31495;42.740;22.908;2024-01-15T01:37:26;92426.22;;;-7.91;77.59
45793;BME280;31495;42.740;22.908;2024-01-15T01:38:26;92487.34;;;-7.47;77.58
45793;BME280;31495;42.740;22.908;2024-01-15T01:39:26;92513.22;;;-7.24;77.56
45793;BME280;31495;42.740;22.908;2024-01-15T01:40:26;92479.00;;;-7.47;77.19
45793;BME280;31495;42.740;22.908;2024-01-15T01:41:26;92510.59;;;-7.33;77.66
45793;BME280;31495;42.740;22.908;2024-01-15T01:42:26;92493.94;;;-7.34;77.67
45793;BME280;31495;42.740;22.908;2024-01-15T01:43:27;92408.88;;;-7.83;77.78
45793;BME280;31495;42.740;22.908;2024-01-15T01:44:27;92495.50;;;-7.22;77.15
45793;BME280;31495;42.740;22.908;2024-01-15T01:45:27;92497.09;;;-7.21;77.60
45793;BME280;31495;42.740;22.908;2024-01-15T01:46:27;92411.22;;;-7.70;77.38
45793;BME280;31495;42.740;22.908;2024-01-15T01:47:27;92420.16;;;-7.77;77.77
45793;BME280;31495;42.740;22.908;2024-01-15T01:48:27;92396.78;;;-7.89;78.01
45793;BME280;31495;42.740;22.908;2024-01-15T01:49:27;92471.56;;;-7.37;78.00
45793;BME280;31495;42.740;22.908;2024-01-15T01:50:29;92270.59;;;-8.67;78.01
45793;BME280;31495;42.740;22.908;2024-01-15T01:51:31;92494.94;;;-7.26;78.24
45793;BME280;31495;42.740;22.908;2024-01-15T01:52:32;92390.94;;;-7.78;77.82
45793;BME280;31495;42.740;22.908;2024-01-15T01:53:34;92461.50;;;-7.37;77.93
45793;BME280;31495;42.740;22.908;2024-01-15T01:54:35;92489.53;;;-7.10;77.85
45793;BME280;31495;42.740;22.908;2024-01-15T01:55:35;92372.47;;;-7.88;77.79
45793;BME280;31495;42.740;22.908;2024-01-15T01:56:35;92398.56;;;-7.68;77.94
45793;BME280;31495;42.740;22.908;2024-01-15T01:57:35;92447.78;;;-7.33;78.10
45793;BME280;31495;42.740;22.908;2024-01-15T01:58:36;92442.00;;;-7.45;77.86
45793;BME280;31495;42.740;22.908;2024-01-15T01:59:36;92474.66;;;-7.13;77.70
45793;BME280;31495;42.740;22.908;2024-01-15T02:00:36;92472.75;;;-7.21;77.75
45793;BME280;31495;42.740;22.908;2024-01-15T02:01:36;92349.69;;;-7.97;78.05
45793;BME280;31495;42.740;22.908;2024-01-15T02:02:35;92300.34;;;-8.30;77.88
45793;BME280;31495;42.740;22.908;2024-01-15T02:03:35;92464.88;;;-7.27;77.92
45793;BME280;31495;42.740;22.908;2024-01-15T02:04:36;92287.41;;;-8.46;77.73
45793;BME280;31495;42.740;22.908;2024-01-15T02:05:36;92465.91;;;-7.30;77.68
45793;BME280;31495;42.740;22.908;2024-01-15T02:06:36;92368.81;;;-7.96;77.96
45793;BME280;31495;42.740;22.908;2024-01-15T02:07:36;92465.56;;;-7.25;77.88
45793;BME280;31495;42.740;22.908;2024-01-15T02:08:36;92346.97;;;-8.05;77.83
45793;BME280;31495;42.740;22.908;2024-01-15T02:09:36;92476.88;;;-7.19;78.32
45793;BME280;31495;42.740;22.908;2024-01-15T02:10:35;92376.34;;;-7.84;78.31
45793;BME280;31495;42.740;22.908;2024-01-15T02:11:36;92384.31;;;-7.79;78.39
45793;BME280;31495;42.740;22.908;2024-01-15T02:12:36;92349.09;;;-8.00;78.16
45793;BME280;31495;42.740;22.908;2024-01-15T02:13:36;92370.97;;;-7.80;78.10
45793;BME280;31495;42.740;22.908;2024-01-15T02:14:35;92319.59;;;-8.08;78.20
45793;BME280;31495;42.740;22.908;2024-01-15T02:15:35;92454.47;;;-7.23;78.53
45793;BME280;31495;42.740;22.908;2024-01-15T02:16:34;92239.34;;;-8.63;78.12
45793;BME280;31495;42.740;22.908;2024-01-15T02:17:34;92365.97;;;-7.91;78.41
45793;BME280;31495;42.740;22.908;2024-01-15T02:18:40;92476.75;;;-7.18;78.20
45793;BME280;31495;42.740;22.908;2024-01-15T02:19:40;92311.19;;;-8.29;78.11
45793;BME280;31495;42.740;22.908;2024-01-15T02:20:40;92335.66;;;-8.10;78.27
45793;BME280;31495;42.740;22.908;2024-01-15T02:21:39;92307.28;;;-8.22;77.94
45793;BME280;31495;42.740;22.908;2024-01-15T02:22:39;92413.41;;;-7.65;77.74
45793;BME280;31495;42.740;22.908;2024-01-15T02:23:38;92367.69;;;-7.91;78.04
45793;BME280;31495;42.740;22.908;2024-01-15T02:24:38;92390.81;;;-7.77;77.84
45793;BME280;31495;42.740;22.908;2024-01-15T02:25:40;92390.94;;;-7.78;78.04
45793;BME280;31495;42.740;22.908;2024-01-15T02:26:40;92457.72;;;-7.32;78.14
45793;BME280;31495;42.740;22.908;2024-01-15T02:27:39;92437.09;;;-7.47;78.50
45793;BME280;31495;42.740;22.908;2024-01-15T02:28:39;92397.78;;;-7.69;78.09
45793;BME280;31495;42.740;22.908;2024-01-15T02:29:41;92428.63;;;-7.46;78.47
45793;BME280;31495;42.740;22.908;2024-01-15T02:30:41;92444.00;;;-7.28;78.17
45793;BME280;31495;42.740;22.908;2024-01-15T02:31:41;92379.25;;;-7.68;78.08
45793;BME280;31495;42.740;22.908;2024-01-15T02:32:40;92396.91;;;-7.58;78.33
45793;BME280;31495;42.740;22.908;2024-01-15T02:33:40;92259.44;;;-8.42;77.83
45793;BME280;31495;42.740;22.908;2024-01-15T02:34:41;92397.78;;;-7.48;78.03
45793;BME280;31495;42.740;22.908;2024-01-15T02:35:41;92445.09;;;-7.21;78.11
45793;BME280;31495;42.740;22.908;2024-01-15T02:36:40;92465.84;;;-7.07;78.08
45793;BME280;31495;42.740;22.908;2024-01-15T02:37:40;92470.31;;;-7.11;78.30
45793;BME280;31495;42.740;22.908;2024-01-15T02:38:39;92394.69;;;-7.40;77.94
45793;BME280;31495;42.740;22.908;2024-01-15T02:39:39;92383.88;;;-7.52;78.21
45793;BME280;31495;42.740;22.908;2024-01-15T02:40:38;92424.78;;;-7.29;78.23
45793;BME280;31495;42.740;22.908;2024-01-15T02:41:38;92244.03;;;-8.37;77.91
45793;BME280;31495;42.740;22.908;2024-01-15T02:42:37;92458.97;;;-7.05;78.30
45793;BME280;31495;42.740;22.908;2024-01-15T02:43:37;92409.53;;;-7.37;78.30
45793;BME280;31495;42.740;22.908;2024-01-15T02:44:37;92372.97;;;-7.62;78.62
45793;BME280;31495;42.740;22.908;2024-01-15T02:45:36;92379.13;;;-7.66;78.69
45793;BME280;31495;42.740;22.908;2024-01-15T02:46:36;92283.00;;;-8.22;78.38
45793;BME280;31495;42.740;22.908;2024-01-15T02:47:35;92442.34;;;-7.17;78.48
45793;BME280;31495;42.740;22.908;2024-01-15T02:48:34;92343.56;;;-7.83;78.11
45793;BME280;31495;42.740;22.908;2024-01-15T02:49:34;92428.88;;;-7.16;78.47
45793;BME280;31495;42.740;22.908;2024-01-15T02:50:34;92432.59;;;-7.11;77.69
45793;BME280;31495;42.740;22.908;2024-01-15T02:51:33;92444.16;;;-7.08;77.85
45793;BME280;31495;42.740;22.908;2024-01-15T02:52:33;92307.00;;;-7.97;77.82
45793;BME280;31495;42.740;22.908;2024-01-15T02:53:33;92404.13;;;-7.32;78.04
45793;BME280;31495;42.740;22.908;2024-01-15T02:54:33;92304.69;;;-7.88;77.62
45793;BME280;31495;42.740;22.908;2024-01-15T02:55:33;92416.31;;;-7.16;78.02
45793;BME280;31495;42.740;22.908;2024-01-15T02:56:33;92150.19;;;-8.88;78.12
45793;BME280;31495;42.740;22.908;2024-01-15T02:57:33;92331.75;;;-7.71;77.90
45793;BME280;31495;42.740;22.908;2024-01-15T02:58:33;92421.75;;;-7.11;77.90
45793;BME280;31495;42.740;22.908;2024-01-15T02:59:33;92323.44;;;-7.71;77.93
45793;BME280;31495;42.740;22.908;2024-01-15T03:00:33;92342.44;;;-7.58;78.33
45793;BME280;31495;42.740;22.908;2024-01-15T03:01:33;92399.06;;;-7.21;78.33
45793;BME280;31495;42.740;22.908;2024-01-15T03:02:36;92334.91;;;-7.58;78.16
45793;BME280;31495;42.740;22.908;2024-01-15T03:03:40;92412.00;;;-7.05;78.25
45793;BME280;31495;42.740;22.908;2024-01-15T03:04:43;92311.19;;;-7.65;78.23
45793;BME280;31495;42.740;22.908;2024-01-15T03:05:43;92342.03;;;-7.42;78.11
45793;BME280;31495;42.740;22.908;2024-01-15T03:06:42;92320.28;;;-7.52;78.21
45793;BME280;31495;42.740;22.908;2024-01-15T03:07:42;92326.88;;;-7.51;78.01
45793;BME280;31495;42.740;22.908;2024-01-15T03:08:42;92332.34;;;-7.46;78.03
45793;BME280;31495;42.740;22.908;2024-01-15T03:09:42;92374.47;;;-7.17;78.60
45793;BME280;31495;42.740;22.908;2024-01-15T03:10:41;92438.06;;;-6.85;78.58
45793;BME280;31495;42.740;22.908;2024-01-15T03:11:41;92436.09;;;-6.81;78.50
45793;BME280;31495;42.740;22.908;2024-01-15T03:12:40;92258.44;;;-7.86;78.49
45793;BME280;31495;42.740;22.908;2024-01-15T03:13:40;92346.03;;;-7.18;78.36
45793;BME280;31495;42.740;22.908;2024-01-15T03:14:39;92407.75;;;-6.83;78.56
45793;BME280;31495;42.740;22.908;2024-01-15T03:15:39;92375.78;;;-6.92;78.14
45793;BME280;31495;42.740;22.908;2024-01-15T03:16:38;92327.25;;;-7.14;78.53
45793;BME280;31495;42.740;22.908;2024-01-15T03:17:38;92308.00;;;-7.25;78.21
45793;BME280;31495;42.740;22.908;2024-01-15T03:18:37;92317.91;;;-7.23;78.10
45793;BME280;31495;42.740;22.908;2024-01-15T03:19:36;92311.69;;;-7.29;78.04
45793;BME280;31495;42.740;22.908;2024-01-15T03:20:36;92295.53;;;-7.36;78.24
45793;BME280;31495;42.740;22.908;2024-01-15T03:21:35;92310.78;;;-7.28;78.24
45793;BME280;31495;42.740;22.908;2024-01-15T03:22:35;92410.22;;;-6.72;78.18
45793;BME280;31495;42.740;22.908;2024-01-15T03:23:35;92358.69;;;-6.98;78.01
45793;BME280;31495;42.740;22.908;2024-01-15T03:24:35;92370.03;;;-6.83;77.91
45793;BME280;31495;42.740;22.908;2024-01-15T03:25:36;92417.50;;;-6.48;77.75
45793;BME280;31495;42.740;22.908;2024-01-15T03:26:35;92420.78;;;-6.47;77.93
45793;BME280;31495;42.740;22.908;2024-01-15T03:27:35;92327.78;;;-7.10;77.81
45793;BME280;31495;42.740;22.908;2024-01-15T03:28:35;92309.88;;;-7.17;77.98
45793;BME280;31495;42.740;22.908;2024-01-15T03:29:36;92390.88;;;-6.71;78.00
45793;BME280;31495;42.740;22.908;2024-01-15T03:30:36;92186.50;;;-7.97;78.22
45793;BME280;31495;42.740;22.908;2024-01-15T03:31:36;92405.22;;;-6.62;78.31
45793;BME280;31495;42.740;22.908;2024-01-15T03:32:36;92384.03;;;-6.59;78.24
45793;BME280;31495;42.740;22.908;2024-01-15T03:33:36;92302.94;;;-7.04;77.95
45793;BME280;31495;42.740;22.908;2024-01-15T03:34:36;92285.28;;;-7.13;78.05
45793;BME280;31495;42.740;22.908;2024-01-15T03:35:36;92281.44;;;-7.17;78.24
45793;BME280;31495;42.740;22.908;2024-01-15T03:36:36;92392.34;;;-6.38;77.93
45793;BME280;31495;42.740;22.908;2024-01-15T03:37:36;92363.66;;;-6.56;78.04
45793;BME280;31495;42.740;22.908;2024-01-15T03:38:40;92394.72;;;-6.36;78.31
45793;BME280;31495;42.740;22.908;2024-01-15T03:39:40;92391.66;;;-6.40;78.29
45793;BME280;31495;42.740;22.908;2024-01-15T03:40:40;92385.47;;;-6.36;78.15
45793;BME280;31495;42.740;22.908;2024-01-15T03:41:39;92313.28;;;-6.97;78.08
45793;BME280;31495;42.740;22.908;2024-01-15T03:42:39;92305.63;;;-6.95;78.18
45793;BME280;31495;42.740;22.908;2024-01-15T03:43:38;92400.91;;;-6.50;78.10
45793;BME280;31495;42.740;22.908;2024-01-15T03:44:39;92356.66;;;-6.84;78.42
45793;BME280;31495;42.740;22.908;2024-01-15T03:45:38;92293.38;;;-7.41;78.44
45793;BME280;31495;42.740;22.908;2024-01-15T03:46:38;92409.22;;;-6.80;78.74
45793;BME280;31495;42.740;22.908;2024-01-15T03:47:37;92404.06;;;-6.79;78.46
45793;BME280;31495;42.740;22.908;2024-01-15T03:48:37;92405.91;;;-6.81;78.51
45793;BME280;31495;42.740;22.908;2024-01-15T03:49:37;92268.91;;;-7.60;78.87
45793;BME280;31495;42.740;22.908;2024-01-15T03:50:37;92295.63;;;-7.37;78.65
45793;BME280;31495;42.740;22.908;2024-01-15T03:51:37;92284.41;;;-7.54;78.63
45793;BME280;31495;42.740;22.908;2024-01-15T03:52:38;92395.13;;;-6.93;79.18
45793;BME280;31495;42.740;22.908;2024-01-15T03:53:38;92397.34;;;-6.78;79.32
45793;BME280;31495;42.740;22.908;2024-01-15T03:54:38;92322.16;;;-7.24;79.15
45793;BME280;31495;42.740;22.908;2024-01-15T03:55:38;92271.72;;;-7.53;79.19
45793;BME280;31495;42.740;22.908;2024-01-15T03:56:38;92343.69;;;-7.10;79.76
45793;BME280;31495;42.740;22.908;2024-01-15T03:57:38;92267.53;;;-7.52;80.07
45793;BME280;31495;42.740;22.908;2024-01-15T03:58:38;92150.34;;;-8.26;79.58
45793;BME280;31495;42.740;22.908;2024-01-15T03:59:40;92330.66;;;-7.15;80.06
45793;BME280;31495;42.740;22.908;2024-01-15T04:00:42;92379.84;;;-6.80;79.92
45793;BME280;31495;42.740;22.908;2024-01-15T04:01:48;92312.81;;;-7.12;80.03
45793;BME280;31495;42.740;22.908;2024-01-15T04:02:48;92373.38;;;-6.73;80.07
45793;BME280;31495;42.740;22.908;2024-01-15T04:03:47;92299.06;;;-7.17;79.84
45793;BME280;31495;42.740;22.908;2024-01-15T04:04:46;92302.91;;;-7.13;79.99
45793;BME280;31495;42.740;22.908;2024-01-15T04:05:46;92173.94;;;-7.97;79.93
45793;BME280;31495;42.740;22.908;2024-01-15T04:06:45;92361.34;;;-6.69;79.67
45793;BME280;31495;42.740;22.908;2024-01-15T04:07:45;92307.72;;;-7.00;79.57
45793;BME280;31495;42.740;22.908;2024-01-15T04:08:44;92377.06;;;-6.56;79.41
45793;BME280;31495;42.740;22.908;2024-01-15T04:09:44;92378.50;;;-6.53;79.81
45793;BME280;31495;42.740;22.908;2024-01-15T04:10:43;92380.47;;;-6.57;79.98
45793;BME280;31495;42.740;22.908;2024-01-15T04:11:43;92366.66;;;-6.62;79.36
45793;BME280;31495;42.740;22.908;2024-01-15T04:12:42;92344.09;;;-6.84;79.94
45793;BME280;31495;42.740;22.908;2024-01-15T04:13:42;92353.91;;;-6.71;79.74
45793;BME280;31495;42.740;22.908;2024-01-15T04:14:42;92268.22;;;-7.19;79.70
45793;BME280;31495;42.740;22.908;2024-01-15T04:15:41;92279.22;;;-7.11;79.52
45793;BME280;31495;42.740;22.908;2024-01-15T04:16:41;92378.53;;;-6.43;79.61
45793;BME280;31495;42.740;22.908;2024-01-15T04:17:41;92254.97;;;-7.22;79.72
45793;BME280;31495;42.740;22.908;2024-01-15T04:18:40;92311.09;;;-6.90;80.14
45793;BME280;31495;42.740;22.908;2024-01-15T04:19:40;92263.69;;;-7.26;80.04
45793;BME280;31495;42.740;22.908;2024-01-15T04:20:43;92386.31;;;-6.56;80.20
45793;BME280;31495;42.740;22.908;2024-01-15T04:21:43;92334.06;;;-6.74;80.08
45793;BME280;31495;42.740;22.908;2024-01-15T04:22:43;92258.59;;;-7.14;79.47
45793;BME280;31495;42.740;22.908;2024-01-15T04:23:43;92353.34;;;-6.53;79.57
45793;BME280;31495;42.740;22.908;2024-01-15T04:24:43;92352.59;;;-6.44;79.38
45793;BME280;31495;42.740;22.908;2024-01-15T04:25:43;92277.06;;;-6.94;79.45
45793;BME280;31495;42.740;22.908;2024-01-15T04:26:42;92268.72;;;-6.95;79.41
45793;BME280;31495;42.740;22.908;2024-01-15T04:27:42;92301.75;;;-6.78;79.75
45793;BME280;31495;42.740;22.908;2024-01-15T04:28:41;92352.63;;;-6.34;79.60
45793;BME280;31495;42.740;22.908;2024-01-15T04:29:41;92188.50;;;-7.39;79.72
45793;BME280;31495;42.740;22.908;2024-01-15T04:30:41;92173.78;;;-7.43;79.47
45793;BME280;31495;42.740;22.908;2024-01-15T04:31:41;92353.56;;;-6.25;79.46
45793;BME280;31495;42.740;22.908;2024-01-15T04:32:41;92363.53;;;-6.14;79.16
45793;BME280;31495;42.740;22.908;2024-01-15T04:33:41;92355.03;;;-6.23;79.34
45793;BME280;31495;42.740;22.908;2024-01-15T04:34:41;92191.31;;;-7.22;78.99
45793;BME280;31495;42.740;22.908;2024-01-15T04:35:41;92333.16;;;-6.32;79.00
45793;BME280;31495;42.740;22.908;2024-01-15T04:36:41;92259.72;;;-6.88;79.11
45793;BME280;31495;42.740;22.908;2024-01-15T04:37:41;92354.34;;;-6.25;79.21
45793;BME280;31495;42.740;22.908;2024-01-15T04:38:41;92348.25;;;-6.32;79.77
45793;BME280;31495;42.740;22.908;2024-01-15T04:39:42;92275.38;;;-6.84;79.75
45793;BME280;31495;42.740;22.908;2024-01-15T04:40:42;92357.09;;;-6.38;79.78
45793;BME280;31495;42.740;22.908;2024-01-15T04:41:42;92325.00;;;-6.55;79.93
45793;BME280;31495;42.740;22.908;2024-01-15T04:42:42;92368.66;;;-6.25;80.21
45793;BME280;31495;42.740;22.908;2024-01-15T04:43:42;92343.75;;;-6.29;79.68
45793;BME280;31495;42.740;22.908;2024-01-15T04:44:42;92341.09;;;-6.27;79.78
45793;BME280;31495;42.740;22.908;2024-01-15T04:45:42;92324.09;;;-6.44;79.97
45793;BME280;31495;42.740;22.908;2024-01-15T04:46:42;92296.50;;;-6.66;79.66
45793;BME280;31495;42.740;22.908;2024-01-15T04:47:43;92330.44;;;-6.50;79.89
45793;BME280;31495;42.740;22.908;2024-01-15T04:48:42;92244.97;;;-7.02;80.01
45793;BME280;31495;42.740;22.908;2024-01-15T04:49:42;92355.75;;;-6.42;80.72
45793;BME280;31495;42.740;22.908;2024-01-15T04:50:43;92303.31;;;-6.77;80.74
45793;BME280;31495;42.740;22.908;2024-01-15T04:51:43;92278.94;;;-6.87;80.46
45793;BME280;31495;42.740;22.908;2024-01-15T04:52:43;92263.47;;;-7.13;80.91
45793;BME280;31495;42.740;22.908;2024-01-15T04:53:43;92265.91;;;-7.02;80.91
45793;BME280;31495;42.740;22.908;2024-01-15T04:54:43;92285.53;;;-6.86;80.14
45793;BME280;31495;42.740;22.908;2024-01-15T04:55:43;92373.47;;;-6.53;80.81
45793;BME280;31495;42.740;22.908;2024-01-15T04:56:44;92287.00;;;-6.93;80.85
45793;BME280;31495;42.740;22.908;2024-01-15T04:57:43;92312.34;;;-6.75;80.95
45793;BME280;31495;42.740;22.908;2024-01-15T04:58:43;92245.47;;;-7.18;81.12
45793;BME280;31495;42.740;22.908;2024-01-15T04:59:43;92235.91;;;-7.24;81.10
45793;BME280;31495;42.740;22.908;2024-01-15T05:00:43;92324.28;;;-6.67;81.49
45793;BME280;31495;42.740;22.908;2024-01-15T05:01:43;92273.06;;;-6.97;81.37
45793;BME280;31495;42.740;22.908;2024-01-15T05:02:44;92323.66;;;-6.59;81.49
45793;BME280;31495;42.740;22.908;2024-01-15T05:03:44;92310.19;;;-6.79;81.65
45793;BME280;31495;42.740;22.908;2024-01-15T05:04:44;92154.63;;;-7.75;81.27
45793;BME280;31495;42.740;22.908;2024-01-15T05:05:44;92335.59;;;-6.52;81.37
45793;BME280;31495;42.740;22.908;2024-01-15T05:06:44;92276.44;;;-6.87;81.75
45793;BME280;31495;42.740;22.908;2024-01-15T05:07:44;92248.81;;;-7.08;81.66
45793;BME280;31495;42.740;22.908;2024-01-15T05:08:44;92186.69;;;-7.58;81.63
45793;BME280;31495;42.740;22.908;2024-01-15T05:09:44;92270.13;;;-7.02;81.86
45793;BME280;31495;42.740;22.908;2024-01-15T05:10:44;92352.84;;;-6.47;81.66
45793;BME280;31495;42.740;22.908;2024-01-15T05:11:44;92316.63;;;-6.66;81.46
45793;BME280;31495;42.740;22.908;2024-01-15T05:12:44;92233.03;;;-7.19;81.19
45793;BME280;31495;42.740;22.908;2024-01-15T05:13:44;92333.09;;;-6.52;81.41